Nearby METAR Reports

 

KCMA - Camarillo, California, USA
Distance from station: WSW 4mi, 7km
Updated: Sat, 16-Dec-2017 11:55am PST
Smoke, Clear
Smoke, Clear
 Wind from W
Wind: W 6 mph , 9 km/h
Temperature: 68°F , 20°C
Dew Point: 39°F , 4°C
Humidity: 35%
Barometer: 29.69 inHg , 1005.4 hPa
Summary: Smoke
Clouds: Clear
Visibility: 7 miles , 11 km
2017/12/16 19:55 KCMA 161955Z 28005KT 7SM FU CLR 20/04 A2969 RMK AO2 SLP061 T02000044
KNTD - Point Mugu Nas, California, USA
Distance from station: SSW 9mi, 15km
Updated: Sat, 16-Dec-2017 11:56am PST
Few Clouds
Few Clouds
 Wind from WSW
Wind: WSW 6 mph , 9 km/h
Temperature: 64°F , 18°C
Dew Point: 52°F , 11°C
Humidity: 64%
Barometer: 29.71 inHg , 1006.1 hPa
Clouds: Few Clouds
Visibility: 7 miles , 11 km
Cloud details: Few Clouds 25000 ft
2017/12/16 19:56 KNTD 161956Z 24005KT 7SM FEW250 18/11 A2971 RMK AO2 SLP060 T01780106 $
 
KOXR - Oxnard, California, USA
Distance from station: WSW 10mi, 16km
Updated: Sat, 16-Dec-2017 11:51am PST
Smoke, Clear
Smoke, Clear
 Wind from W
Wind: W 9 mph , 15 km/h
Temperature: 63°F , 17°C
Dew Point: 48°F , 9°C
Humidity: 59%
Barometer: 29.69 inHg , 1005.4 hPa
Summary: Smoke
Clouds: Clear
Visibility: 7 miles , 11 km
2017/12/16 19:51 KOXR 161951Z 26008KT 7SM FU CLR 17/09 A2969 RMK AO2 SLP055 T01720094
KVNY - Van Nuys, California, USA
Distance from station: E 31mi, 50km
Updated: Sat, 16-Dec-2017 11:51am PST
Smoke, Few clouds
Smoke, Few clouds
 Wind from SE
Wind: SE 8 mph , 13 km/h
Temperature: 66°F , 19°C
Dew Point: 28°F , -2°C
Humidity: 24%
Barometer: 29.68 inHg , 1005.1 hPa
Summary: Smoke
Clouds: Few Clouds
Visibility: 10 miles , 16 km
Cloud details: Few Clouds 5500 ft
2017/12/16 19:51 KVNY 161951Z 13007KT 10SM FU FEW055 19/M02 A2968 RMK AO2 SLP045 T01891017
 
KWHP - La / Whiteman, California, USA
Distance from station: E 35mi, 56km
Updated: Sat, 16-Dec-2017 11:55am PST
Clear
Clear
 Wind from E
Wind: E 6 mph , 9 km/h
Temperature: 63°F , 17°C
Dew Point: 27°F , -3°C
Humidity: 25%
Barometer: 29.72 inHg , 1006.4 hPa
Clouds: Clear
Visibility: 9 miles , 14 km
2017/12/16 19:55 KWHP 161955Z 10005KT 9SM SKC 17/M03 A2972
KSMO - Santa Monica, California, USA
Distance from station: ESE 36mi, 58km
Updated: Sat, 16-Dec-2017 11:51am PST
Clear
Clear
 Wind from varies
Wind: varies 3 mph , 6 km/h
Temperature: 66°F , 19°C
Dew Point: 46°F , 8°C
Humidity: 49%
Barometer: 29.69 inHg , 1005.4 hPa
Clouds: Clear
Visibility: 10 miles , 16 km
2017/12/16 19:51 KSMO 161951Z AUTO VRB03KT 10SM CLR 19/08 A2969 RMK AO2 SLP054 T01940078
 
KBUR - Burbank, California, USA
Distance from station: E 38mi, 61km
Updated: Sat, 16-Dec-2017 11:53am PST
Haze, Clear
Haze, Clear
 Wind from SE
Wind: SE 8 mph , 13 km/h
Temperature: 64°F , 18°C
Dew Point: 32°F , 0°C
Humidity: 30%
Barometer: 29.68 inHg , 1005.1 hPa
Summary: Haze
Clouds: Clear
Visibility: 6 miles , 10 km
2017/12/16 19:53 KBUR 161953Z 14007KT 6SM HZ CLR 18/00 A2968 RMK AO2 SLP041 T01830000
KSDB - Sandberg, California, USA
Distance from station: NNE 40mi, 64km
Updated: Sat, 16-Dec-2017 11:53am PST
Haze, Clear
Haze, Clear
 Wind from NNW
Wind: NNW 28 mph , 44 km/h, Gust: 38 mph , 61 km/h
Temperature: 45°F , 7°C
Wind Chill: 36°F , 2°C
Dew Point: 32°F , 0°C
Humidity: 61%
Barometer: 29.78 inHg , 1008.5 hPa
Summary: Haze
Clouds: Clear
Visibility: 6 miles , 10 km
2017/12/16 19:53 KSDB 161953Z AUTO 34024G33KT 6SM HZ CLR 07/00 A2978 RMK AO2 PK WND 34033/1946 SLP055 T00720000
 
KLAX - Los Angeles, California, USA
Distance from station: ESE 42mi, 68km
Updated: Sat, 16-Dec-2017 11:53am PST
Few Clouds
Few Clouds
 Wind from ESE
Wind: ESE 8 mph , 13 km/h, Gust: 17 mph , 28 km/h
Temperature: 64°F , 18°C
Dew Point: 52°F , 11°C
Humidity: 64%
Barometer: 29.69 inHg , 1005.4 hPa
Clouds: Few Clouds
Visibility: 10 miles , 16 km
Cloud details: Few Clouds 2500 ft
Few Clouds 15000 ft
2017/12/16 19:53 KLAX 161953Z 12007G15KT 10SM FEW025 FEW150 18/11 A2969 RMK AO2 SLP053 T01830106
KCQT - Los Angeles, California, USA
Distance from station: ESE 45mi, 73km
Updated: Sat, 16-Dec-2017 11:47am PST
Clear
Clear
 Wind from SE
Wind: SE 7 mph , 11 km/h
Temperature: 66°F , 19°C
Dew Point: 46°F , 8°C
Humidity: 49%
Barometer: 29.68 inHg , 1005.1 hPa
Clouds: Clear
Visibility: 10 miles , 16 km
2017/12/16 19:47 KCQT 161947Z AUTO 14006KT 10SM CLR 19/08 A2968 RMK AO2 SLP049 T01890078
 
KHHR - Hawthorne, California, USA
Distance from station: ESE 45mi, 73km
Updated: Sat, 16-Dec-2017 11:53am PST
Few Clouds
Few Clouds
 Wind from SE
Wind: SE 6 mph , 9 km/h
Temperature: 64°F , 18°C
Dew Point: 52°F , 11°C
Humidity: 64%
Barometer: 29.69 inHg , 1005.4 hPa
Clouds: Few Clouds
Visibility: 10 miles , 16 km
Cloud details: Few Clouds 3100 ft
2017/12/16 19:53 KHHR 161953Z 14005KT 10SM FEW031 18/11 A2969 RMK AO2 SLP054 T01780106
KSBA - Santa Barbara, California, USA
Distance from station: WNW 49mi, 79km
Updated: Sat, 16-Dec-2017 11:53am PST
Smoke, Clear
Smoke, Clear
 Wind from varies
Wind: varies 3 mph , 6 km/h
Temperature: 68°F , 20°C
Dew Point: 36°F , 2°C
Humidity: 30%
Barometer: 29.69 inHg , 1005.4 hPa
Summary: Smoke
Clouds: Clear
Visibility: 10 miles , 16 km
2017/12/16 19:53 KSBA 161953Z AUTO VRB03KT 10SM FU CLR 20/02 A2969 RMK AO2 SLP054 T02000017 $